Time;durP1;ratioP1;P1;durP2;ratioP2;P2;SDS_P1;SDS_P2;PMS_P1;PMS_P2;Temp;Humidity;BMP_temperature;BMP_pressure;BME280_temperature;BME280_humidity;BME280_pressure;Samples;Min_cycle;Max_cycle;Signal;HPM_P1;HPM_P2
2022/11/15 00:04:35;;;;;;;9.35;5.05;;;;;;;;;;10287120;28;20471;-62
2022/11/15 00:09:36;;;;;;;6.38;4.25;;;;;;;;;;10286905;28;20109;-62
2022/11/15 00:14:36;;;;;;;9.95;5.05;;;;;;;;;;10287068;28;20035;-62
2022/11/15 00:19:37;;;;;;;8.20;4.60;;;;;;;;;;10286958;28;20042;-62
2022/11/15 00:24:37;;;;;;;7.88;4.10;;;;;;;;;;10287859;28;20023;-62
2022/11/15 00:29:42;;;;;;;9.15;4.95;;;;;;;;;;10286817;28;20047;-63
2022/11/15 00:34:43;;;;;;;6.00;4.50;;;;;;;;;;10287247;28;20023;-63
2022/11/15 00:39:44;;;;;;;6.03;4.55;;;;;;;;;;10287466;28;20478;-61
2022/11/15 00:44:44;;;;;;;7.40;4.35;;;;;;;;;;10286562;28;20478;-63
2022/11/15 00:49:45;;;;;;;10.70;4.20;;;;;;;;;;10286239;28;20035;-64
2022/11/15 00:54:45;;;;;;;5.78;4.35;;;;;;;;;;10286259;28;20027;-63
2022/11/15 00:59:46;;;;;;;7.05;4.20;;;;;;;;;;10285994;28;20035;-62
2022/11/15 01:04:46;;;;;;;7.03;4.30;;;;;;;;;;10286563;28;20027;-62
2022/11/15 01:09:47;;;;;;;9.63;4.93;;;;;;;;;;10287785;28;20171;-62
2022/11/15 01:14:49;;;;;;;6.38;4.32;;;;;;;;;;10293011;28;20038;-62
2022/11/15 01:19:49;;;;;;;6.35;4.18;;;;;;;;;;10292776;28;20034;-62
2022/11/15 01:24:50;;;;;;;6.47;4.05;;;;;;;;;;10292758;28;20023;-62
2022/11/15 01:29:51;;;;;;;7.20;4.53;;;;;;;;;;10292658;28;20069;-62
2022/11/15 01:34:52;;;;;;;7.28;4.78;;;;;;;;;;10292238;28;20034;-62
2022/11/15 01:39:52;;;;;;;6.22;4.25;;;;;;;;;;10292693;28;20043;-62
2022/11/15 01:44:54;;;;;;;5.47;4.57;;;;;;;;;;10291773;28;20422;-62
2022/11/15 01:50:09;;;;;;;5.00;3.97;;;;;;;;;;10291878;28;20041;-62
2022/11/15 01:55:17;;;;;;;5.70;3.90;;;;;;;;;;10291659;28;20031;-62
2022/11/15 02:00:17;;;;;;;6.63;4.50;;;;;;;;;;10290026;28;20457;-62
2022/11/15 02:05:18;;;;;;;4.45;3.88;;;;;;;;;;10291357;28;20037;-62
2022/11/15 02:10:24;;;;;;;6.47;4.43;;;;;;;;;;10289701;28;20072;-62
2022/11/15 02:15:34;;;;;;;7.53;4.10;;;;;;;;;;10290668;28;20382;-62
2022/11/15 02:21:06;;;;;;;5.95;4.15;;;;;;;;;;10288983;28;20117;-62
2022/11/15 02:26:31;;;;;;;5.18;3.80;;;;;;;;;;10289068;28;20394;-62
2022/11/15 02:32:11;;;;;;;5.03;4.20;;;;;;;;;;10289839;28;20058;-62
2022/11/15 02:37:42;;;;;;;5.35;4.15;;;;;;;;;;10289128;28;20038;-62
2022/11/15 02:48:21;;;;;;;5.82;4.47;;;;;;;;;;10288725;28;20263;-61
2022/11/15 02:53:28;;;;;;;6.28;4.03;;;;;;;;;;10288679;28;20117;-62
2022/11/15 02:58:40;;;;;;;9.82;4.15;;;;;;;;;;10288836;28;20034;-61
2022/11/15 03:04:00;;;;;;;17.00;5.03;;;;;;;;;;10288872;28;20031;-61
2022/11/15 03:09:31;;;;;;;7.43;4.68;;;;;;;;;;10288728;28;20026;-62
2022/11/15 03:14:49;;;;;;;6.95;4.60;;;;;;;;;;10287764;28;20417;-62
2022/11/15 03:19:54;;;;;;;8.85;4.53;;;;;;;;;;10286943;28;20030;-61
2022/11/15 03:24:59;;;;;;;11.90;4.45;;;;;;;;;;10288950;28;20034;-61
2022/11/15 03:30:06;;;;;;;10.82;5.32;;;;;;;;;;10301589;23;20058;-58
2022/11/15 03:35:11;;;;;;;7.82;4.90;;;;;;;;;;10291356;28;20430;-58
2022/11/15 03:40:12;;;;;;;12.98;5.55;;;;;;;;;;10313527;28;20172;-59
2022/11/15 03:45:36;;;;;;;5.78;4.47;;;;;;;;;;10328017;28;20038;-59
2022/11/15 03:50:36;;;;;;;6.35;4.40;;;;;;;;;;10327897;28;20049;-58
2022/11/15 03:55:37;;;;;;;8.00;4.45;;;;;;;;;;10326301;28;20113;-58
2022/11/15 04:00:38;;;;;;;7.80;4.50;;;;;;;;;;10327288;28;20030;-58
2022/11/15 04:05:38;;;;;;;7.78;4.30;;;;;;;;;;10326954;28;20031;-60
2022/11/15 04:10:39;;;;;;;7.50;4.45;;;;;;;;;;10327239;28;20030;-58
2022/11/15 04:15:39;;;;;;;6.90;4.47;;;;;;;;;;10326983;28;20034;-57
2022/11/15 04:26:03;;;;;;;6.68;4.38;;;;;;;;;;10328327;28;20038;-57
2022/11/15 04:31:04;;;;;;;6.57;4.38;;;;;;;;;;10326613;28;20057;-58
2022/11/15 04:41:24;;;;;;;3.90;3.45;;;;;;;;;;10326452;28;20522;-59
2022/11/15 04:46:25;;;;;;;5.55;4.10;;;;;;;;;;10331036;28;20042;-59
2022/11/15 04:51:26;;;;;;;11.70;5.05;;;;;;;;;;10334253;28;20065;-59
2022/11/15 04:56:27;;;;;;;6.13;4.10;;;;;;;;;;10333224;28;20045;-59
2022/11/15 05:01:27;;;;;;;5.45;4.30;;;;;;;;;;10333067;28;20031;-59
2022/11/15 05:06:28;;;;;;;6.32;4.63;;;;;;;;;;10333000;28;20104;-58
2022/11/15 05:11:29;;;;;;;6.07;4.00;;;;;;;;;;10332396;28;20112;-59
2022/11/15 05:16:30;;;;;;;5.53;4.05;;;;;;;;;;10332670;28;20437;-59
2022/11/15 05:21:30;;;;;;;5.18;3.88;;;;;;;;;;10332415;28;20390;-59
2022/11/15 05:26:31;;;;;;;5.30;3.53;;;;;;;;;;10333099;28;20066;-59
2022/11/15 05:31:31;;;;;;;7.40;4.28;;;;;;;;;;10332156;28;20490;-59
2022/11/15 05:36:42;;;;;;;5.38;3.95;;;;;;;;;;10332728;28;20026;-59
2022/11/15 05:42:02;;;;;;;5.10;3.75;;;;;;;;;;10331170;28;20030;-58
2022/11/15 05:47:06;;;;;;;4.18;3.65;;;;;;;;;;10332101;28;20034;-58
2022/11/15 05:52:08;;;;;;;5.95;3.80;;;;;;;;;;10331324;28;20023;-59
2022/11/15 05:57:09;;;;;;;5.28;3.90;;;;;;;;;;10329337;28;20022;-57
2022/11/15 06:02:11;;;;;;;5.47;4.50;;;;;;;;;;10330971;28;20366;-58
2022/11/15 06:07:11;;;;;;;4.57;3.90;;;;;;;;;;10330720;28;20600;-58
2022/11/15 06:12:12;;;;;;;4.90;4.30;;;;;;;;;;10330844;28;20027;-58
2022/11/15 06:17:13;;;;;;;6.40;4.03;;;;;;;;;;10330888;28;20484;-58
2022/11/15 06:22:14;;;;;;;4.25;3.40;;;;;;;;;;10331113;28;20034;-58
2022/11/15 06:27:14;;;;;;;5.60;3.75;;;;;;;;;;10330162;28;20034;-58
2022/11/15 06:32:15;;;;;;;4.15;3.70;;;;;;;;;;10330024;28;20038;-58
2022/11/15 06:37:16;;;;;;;4.60;3.78;;;;;;;;;;10329809;28;20034;-58
2022/11/15 06:42:16;;;;;;;4.20;3.80;;;;;;;;;;10330829;28;20100;-58
2022/11/15 06:47:17;;;;;;;4.25;3.65;;;;;;;;;;10328331;28;20042;-57
2022/11/15 06:52:19;;;;;;;5.47;4.00;;;;;;;;;;10328541;28;20037;-59
2022/11/15 06:57:19;;;;;;;4.90;4.00;;;;;;;;;;10329330;28;20038;-58
2022/11/15 07:02:20;;;;;;;5.50;3.83;;;;;;;;;;10329152;28;20038;-58
2022/11/15 07:07:21;;;;;;;5.53;4.05;;;;;;;;;;10327883;28;20038;-59
2022/11/15 07:12:21;;;;;;;6.55;3.92;;;;;;;;;;10328295;28;20053;-59
2022/11/15 07:17:22;;;;;;;5.03;3.90;;;;;;;;;;10327690;28;20029;-58
2022/11/15 07:22:23;;;;;;;4.72;3.33;;;;;;;;;;10328143;28;20018;-60
2022/11/15 07:27:23;;;;;;;4.78;3.40;;;;;;;;;;10327585;28;20034;-58
2022/11/15 07:32:24;;;;;;;4.22;3.38;;;;;;;;;;10327526;28;20057;-58
2022/11/15 07:37:25;;;;;;;4.50;3.75;;;;;;;;;;10327153;28;20386;-57
2022/11/15 07:47:46;;;;;;;8.82;3.40;;;;;;;;;;10325271;28;20039;-58
2022/11/15 07:52:47;;;;;;;5.18;3.88;;;;;;;;;;10327522;28;20030;-59
2022/11/15 07:57:48;;;;;;;6.82;3.75;;;;;;;;;;10327291;28;20030;-58
2022/11/15 08:02:48;;;;;;;6.70;4.00;;;;;;;;;;10327900;28;20029;-59
2022/11/15 08:07:49;;;;;;;12.02;4.95;;;;;;;;;;10326136;28;20065;-59
2022/11/15 08:13:04;;;;;;;6.80;4.00;;;;;;;;;;10326751;28;20030;-58
2022/11/15 08:18:14;;;;;;;8.40;4.32;;;;;;;;;;10327934;28;20474;-58
2022/11/15 08:23:14;;;;;;;6.85;3.83;;;;;;;;;;10334442;28;20029;-58
2022/11/15 08:28:17;;;;;;;10.05;5.13;;;;;;;;;;10333600;28;20034;-59
2022/11/15 08:33:17;;;;;;;7.60;4.90;;;;;;;;;;10334384;28;20053;-58
2022/11/15 08:38:18;;;;;;;7.55;4.45;;;;;;;;;;10334551;28;20026;-57
2022/11/15 08:43:18;;;;;;;5.53;4.22;;;;;;;;;;10335086;28;20034;-60
2022/11/15 08:48:19;;;;;;;12.85;4.95;;;;;;;;;;10334201;28;20032;-58
2022/11/15 08:53:20;;;;;;;7.60;4.45;;;;;;;;;;10334046;28;20038;-58
2022/11/15 08:58:20;;;;;;;8.23;4.72;;;;;;;;;;10334336;28;20056;-57
2022/11/15 09:03:21;;;;;;;6.40;4.60;;;;;;;;;;10333635;28;20038;-58
2022/11/15 09:08:21;;;;;;;7.57;4.70;;;;;;;;;;10333675;28;20543;-58
2022/11/15 09:13:22;;;;;;;9.90;4.47;;;;;;;;;;10333456;28;20022;-60
2022/11/15 09:18:22;;;;;;;7.07;4.60;;;;;;;;;;10333639;28;20038;-58
2022/11/15 09:23:24;;;;;;;6.35;4.80;;;;;;;;;;10333015;28;20071;-57
2022/11/15 09:28:24;;;;;;;8.50;4.82;;;;;;;;;;10331940;28;20057;-58
2022/11/15 09:33:26;;;;;;;6.25;4.85;;;;;;;;;;10331365;28;20022;-58
2022/11/15 09:38:27;;;;;;;5.72;4.00;;;;;;;;;;10332935;28;20045;-58
2022/11/15 09:44:15;;;;;;;5.97;4.45;;;;;;;;;;10332005;28;20479;-58
2022/11/15 09:49:17;;;;;;;6.63;4.28;;;;;;;;;;10326845;28;20470;-58
2022/11/15 09:54:31;;;;;;;6.13;4.95;;;;;;;;;;10330558;28;20027;-57
2022/11/15 10:00:10;;;;;;;4.85;4.00;;;;;;;;;;10330851;28;20036;-57
2022/11/15 10:05:14;;;;;;;;;;;;;;;;;;10331557;28;20077;-58
2022/11/15 10:10:40;;;;;;;5.50;4.40;;;;;;;;;;10329461;28;19913;-57
2022/11/15 10:15:45;;;;;;;5.90;4.22;;;;;;;;;;10329695;28;20045;-58
2022/11/15 10:20:55;;;;;;;4.90;3.97;;;;;;;;;;10329137;28;20030;-59
2022/11/15 10:25:59;;;;;;;5.40;4.32;;;;;;;;;;10329391;28;20034;-60
2022/11/15 10:31:01;;;;;;;6.07;4.95;;;;;;;;;;10329772;28;20066;-58
2022/11/15 10:36:13;;;;;;;7.22;4.38;;;;;;;;;;10329666;28;20104;-59
2022/11/15 10:41:36;;;;;;;6.82;4.45;;;;;;;;;;10328706;28;20393;-57
2022/11/15 10:46:40;;;;;;;6.05;4.38;;;;;;;;;;10329791;28;20367;-58
2022/11/15 10:51:47;;;;;;;8.68;4.60;;;;;;;;;;10329294;28;20048;-58
2022/11/15 10:56:55;;;;;;;4.88;4.13;;;;;;;;;;10328384;28;20084;-58
2022/11/15 11:01:56;;;;;;;5.77;4.70;;;;;;;;;;10328169;28;20038;-58
2022/11/15 11:06:59;;;;;;;6.40;4.25;;;;;;;;;;10328911;28;20489;-58
2022/11/15 11:12:01;;;;;;;6.32;4.28;;;;;;;;;;10310965;28;20474;-59
2022/11/15 11:17:48;;;;;;;6.22;4.78;;;;;;;;;;10326625;28;20455;-57
2022/11/15 11:23:33;;;;;;;6.53;4.68;;;;;;;;;;10327002;28;20029;-58
2022/11/15 11:29:01;;;;;;;7.53;4.68;;;;;;;;;;10327524;28;20461;-58
2022/11/15 11:34:46;;;;;;;4.75;3.80;;;;;;;;;;10327569;28;20026;-58
2022/11/15 11:40:04;;;;;;;6.50;4.00;;;;;;;;;;10325301;28;20030;-58
2022/11/15 11:45:35;;;;;;;4.85;4.32;;;;;;;;;;10326624;28;20022;-57
2022/11/15 11:50:38;;;;;;;5.00;3.97;;;;;;;;;;10325357;28;20027;-57
2022/11/15 11:55:45;;;;;;;6.07;4.38;;;;;;;;;;10327214;28;20113;-57
2022/11/15 12:01:10;;;;;;;6.72;4.25;;;;;;;;;;10325726;28;20512;-57
2022/11/15 12:06:37;;;;;;;5.57;4.40;;;;;;;;;;10325913;28;20035;-58
2022/11/15 12:12:10;;;;;;;4.43;4.03;;;;;;;;;;10326733;28;20030;-58
2022/11/15 12:17:12;;;;;;;4.43;3.72;;;;;;;;;;10327516;28;20045;-57
2022/11/15 12:22:23;;;;;;;4.13;3.72;;;;;;;;;;10327210;28;20026;-58
2022/11/15 12:27:51;;;;;;;5.95;4.50;;;;;;;;;;10326656;28;20030;-58
2022/11/15 12:32:58;;;;;;;4.32;3.92;;;;;;;;;;10325128;28;20057;-58
2022/11/15 12:37:59;;;;;;;5.20;4.40;;;;;;;;;;10326827;28;20034;-58
2022/11/15 12:43:39;;;;;;;5.07;4.50;;;;;;;;;;10326912;28;20026;-58
2022/11/15 12:48:40;;;;;;;6.05;4.80;;;;;;;;;;10326244;28;20037;-57
2022/11/15 12:53:40;;;;;;;5.18;4.53;;;;;;;;;;10325726;28;20037;-58
2022/11/15 12:58:51;;;;;;;7.45;4.38;;;;;;;;;;10326162;28;20438;-57
2022/11/15 13:04:21;;;;;;;4.90;4.40;;;;;;;;;;10326672;28;20080;-58
2022/11/15 13:09:36;;;;;;;5.90;4.20;;;;;;;;;;10333168;28;20037;-58
2022/11/15 13:14:37;;;;;;;7.43;4.75;;;;;;;;;;10333277;28;20031;-58
2022/11/15 13:19:37;;;;;;;5.00;4.22;;;;;;;;;;10333556;28;20470;-58
2022/11/15 13:24:38;;;;;;;4.65;4.20;;;;;;;;;;10331625;28;20496;-58
2022/11/15 13:29:43;;;;;;;5.50;4.20;;;;;;;;;;10332520;28;20129;-58
2022/11/15 13:34:46;;;;;;;4.70;4.20;;;;;;;;;;10332317;28;20081;-58
2022/11/15 13:39:50;;;;;;;5.68;4.15;;;;;;;;;;10331831;28;20120;-59
2022/11/15 13:45:00;;;;;;;5.93;4.47;;;;;;;;;;10332266;28;20117;-59
2022/11/15 13:50:01;;;;;;;8.63;4.30;;;;;;;;;;10332607;28;20034;-59
2022/11/15 13:55:03;;;;;;;6.30;4.60;;;;;;;;;;10331186;28;20470;-59
2022/11/15 14:00:25;;;;;;;6.68;4.13;;;;;;;;;;10331623;28;20026;-61
2022/11/15 14:05:26;;;;;;;6.22;4.07;;;;;;;;;;10328637;28;20471;-59
2022/11/15 14:10:31;;;;;;;7.85;4.70;;;;;;;;;;10329120;28;20033;-59
2022/11/15 14:15:35;;;;;;;8.02;4.18;;;;;;;;;;10330220;28;20371;-57
2022/11/15 14:20:38;;;;;;;10.30;4.65;;;;;;;;;;10329466;28;20033;-58
2022/11/15 14:25:39;;;;;;;5.40;4.20;;;;;;;;;;10328030;28;20029;-59
2022/11/15 14:30:41;;;;;;;36.78;4.75;;;;;;;;;;10329024;28;20509;-62
2022/11/15 14:35:42;;;;;;;11.63;4.85;;;;;;;;;;10329156;28;20093;-59
2022/11/15 14:40:43;;;;;;;7.05;4.10;;;;;;;;;;10328797;28;20072;-59
2022/11/15 14:45:44;;;;;;;13.10;4.63;;;;;;;;;;10329867;28;20030;-59
2022/11/15 14:50:45;;;;;;;6.78;4.40;;;;;;;;;;10329269;28;20027;-59
2022/11/15 14:55:45;;;;;;;8.80;4.50;;;;;;;;;;10329353;28;20045;-59
2022/11/15 15:00:46;;;;;;;6.85;4.00;;;;;;;;;;10329280;28;20027;-59
2022/11/15 15:05:47;;;;;;;9.65;3.75;;;;;;;;;;10329531;28;20110;-59
2022/11/15 15:10:48;;;;;;;13.55;4.07;;;;;;;;;;10329122;28;20273;-59
2022/11/15 15:15:51;;;;;;;5.72;3.75;;;;;;;;;;10328894;28;20258;-59
2022/11/15 15:20:59;;;;;;;5.28;3.90;;;;;;;;;;10327765;28;20504;-59
2022/11/15 15:26:00;;;;;;;7.05;3.83;;;;;;;;;;10316172;28;20377;-59
2022/11/15 15:31:01;;;;;;;8.98;4.10;;;;;;;;;;10320462;28;20058;-59
2022/11/15 15:36:02;;;;;;;5.85;3.78;;;;;;;;;;10322047;28;20106;-59
2022/11/15 15:41:03;;;;;;;5.18;4.18;;;;;;;;;;10327013;28;20471;-59
2022/11/15 15:46:10;;;;;;;10.55;4.20;;;;;;;;;;10327357;28;20030;-59
2022/11/15 15:51:11;;;;;;;5.88;4.10;;;;;;;;;;10325916;28;20304;-59
2022/11/15 15:56:14;;;;;;;8.05;4.18;;;;;;;;;;10326376;28;20104;-59
2022/11/15 16:01:14;;;;;;;6.75;3.97;;;;;;;;;;10325659;28;20397;-59
2022/11/15 16:06:36;;;;;;;8.48;3.50;;;;;;;;;;10326572;28;20045;-59
2022/11/15 16:11:36;;;;;;;9.15;4.28;;;;;;;;;;10325543;28;20026;-59
2022/11/15 16:16:37;;;;;;;6.57;3.85;;;;;;;;;;10327218;28;20481;-59
2022/11/15 16:21:38;;;;;;;7.85;3.70;;;;;;;;;;10325608;28;20629;-59
2022/11/15 16:26:39;;;;;;;4.07;3.65;;;;;;;;;;10326671;28;20057;-59
2022/11/15 16:31:39;;;;;;;6.18;4.28;;;;;;;;;;10325091;28;20042;-59
2022/11/15 16:36:40;;;;;;;5.22;4.03;;;;;;;;;;10326070;28;20030;-59
2022/11/15 16:41:43;;;;;;;6.72;4.28;;;;;;;;;;10331146;28;20264;-59
2022/11/15 16:46:48;;;;;;;7.22;4.63;;;;;;;;;;10333586;28;20038;-59
2022/11/15 16:51:49;;;;;;;5.88;4.35;;;;;;;;;;10333385;28;20038;-59
2022/11/15 16:56:50;;;;;;;5.20;4.22;;;;;;;;;;10333635;28;20057;-59
2022/11/15 17:01:51;;;;;;;7.80;4.25;;;;;;;;;;10333865;28;20053;-59
2022/11/15 17:06:51;;;;;;;5.60;4.40;;;;;;;;;;10333284;28;20045;-59
2022/11/15 17:11:52;;;;;;;13.30;4.28;;;;;;;;;;10333362;28;20540;-59
2022/11/15 17:16:53;;;;;;;5.75;4.32;;;;;;;;;;10333279;28;20058;-59
2022/11/15 17:21:53;;;;;;;5.90;4.20;;;;;;;;;;10332994;28;20026;-59
2022/11/15 17:26:54;;;;;;;8.80;4.53;;;;;;;;;;10332356;28;20034;-59
2022/11/15 17:31:54;;;;;;;6.28;4.75;;;;;;;;;;10331414;28;20042;-58
2022/11/15 17:36:55;;;;;;;9.02;4.68;;;;;;;;;;10332294;28;20034;-59
2022/11/15 17:41:56;;;;;;;6.60;4.10;;;;;;;;;;10331285;28;20332;-59
2022/11/15 17:46:56;;;;;;;5.47;4.40;;;;;;;;;;10326114;28;20034;-60
2022/11/15 17:51:57;;;;;;;6.63;4.25;;;;;;;;;;10329776;28;20493;-60
2022/11/15 17:56:58;;;;;;;5.20;3.75;;;;;;;;;;10331721;28;20022;-60
2022/11/15 18:01:59;;;;;;;5.05;3.85;;;;;;;;;;10331637;28;20031;-60
2022/11/15 18:07:00;;;;;;;6.93;4.22;;;;;;;;;;10331890;28;20034;-60
2022/11/15 18:12:01;;;;;;;7.60;3.78;;;;;;;;;;10330688;28;20030;-60
2022/11/15 18:17:01;;;;;;;9.90;3.78;;;;;;;;;;10331253;28;20038;-59
2022/11/15 18:22:04;;;;;;;5.13;3.60;;;;;;;;;;10329225;28;20030;-60
2022/11/15 18:27:06;;;;;;;4.65;3.45;;;;;;;;;;10329792;28;20522;-60
2022/11/15 18:32:11;;;;;;;5.43;3.60;;;;;;;;;;10329502;28;20038;-60
2022/11/15 18:37:12;;;;;;;6.10;3.80;;;;;;;;;;10330090;28;20118;-60
2022/11/15 18:42:12;;;;;;;7.07;3.92;;;;;;;;;;10329152;28;20109;-60
2022/11/15 18:47:13;;;;;;;5.65;3.45;;;;;;;;;;10329736;28;20061;-60
2022/11/15 18:52:13;;;;;;;6.13;4.20;;;;;;;;;;10329055;28;20102;-59
2022/11/15 18:57:14;;;;;;;5.38;3.40;;;;;;;;;;10328999;28;20030;-59
2022/11/15 19:02:15;;;;;;;6.30;3.60;;;;;;;;;;10327440;28;20030;-59
2022/11/15 19:07:15;;;;;;;18.08;4.20;;;;;;;;;;10327883;28;20034;-59
2022/11/15 19:12:16;;;;;;;14.98;4.40;;;;;;;;;;10328415;28;20057;-59
2022/11/15 19:17:17;;;;;;;9.80;4.40;;;;;;;;;;10328088;28;20065;-59
2022/11/15 19:22:17;;;;;;;8.95;4.97;;;;;;;;;;10327920;28;20026;-59
2022/11/15 19:27:18;;;;;;;9.18;4.95;;;;;;;;;;10327556;28;20022;-59
2022/11/15 19:32:19;;;;;;;8.77;4.82;;;;;;;;;;10327414;28;20635;-58
2022/11/15 19:37:20;;;;;;;13.50;5.30;;;;;;;;;;10327277;28;20035;-59
2022/11/15 19:42:20;;;;;;;12.75;5.38;;;;;;;;;;10327377;28;20071;-59
2022/11/15 19:47:21;;;;;;;9.38;4.50;;;;;;;;;;10326571;28;20030;-59
2022/11/15 19:52:23;;;;;;;10.70;5.25;;;;;;;;;;10328460;28;20031;-59
2022/11/15 19:57:23;;;;;;;15.93;5.50;;;;;;;;;;10327410;28;20355;-59
2022/11/15 20:02:25;;;;;;;9.63;4.95;;;;;;;;;;10326205;28;20018;-57
2022/11/15 20:07:26;;;;;;;10.60;4.82;;;;;;;;;;10326254;28;20038;-58
2022/11/15 20:12:26;;;;;;;14.10;5.15;;;;;;;;;;10326810;28;20034;-59
2022/11/15 20:17:27;;;;;;;16.30;5.00;;;;;;;;;;10333997;28;20033;-59
2022/11/15 20:22:27;;;;;;;13.07;5.32;;;;;;;;;;10334184;28;20022;-59
2022/11/15 20:27:29;;;;;;;9.30;5.13;;;;;;;;;;10333986;28;20285;-60
2022/11/15 20:32:30;;;;;;;15.77;5.43;;;;;;;;;;10332839;28;20046;-59
2022/11/15 20:37:30;;;;;;;13.32;5.55;;;;;;;;;;10334457;28;20037;-53
2022/11/15 20:42:31;;;;;;;24.52;7.45;;;;;;;;;;10333096;28;20038;-53
2022/11/15 20:47:32;;;;;;;17.77;6.35;;;;;;;;;;10332696;28;20033;-54
2022/11/15 20:52:32;;;;;;;17.58;5.95;;;;;;;;;;10333537;28;20033;-55
2022/11/15 20:57:33;;;;;;;13.90;6.30;;;;;;;;;;10333442;28;20077;-53
2022/11/15 21:02:34;;;;;;;10.80;5.90;;;;;;;;;;10333589;28;20030;-54
2022/11/15 21:07:34;;;;;;;13.45;5.93;;;;;;;;;;10333143;28;20081;-54
2022/11/15 21:12:35;;;;;;;13.68;5.53;;;;;;;;;;10333108;28;20412;-52
2022/11/15 21:17:35;;;;;;;12.50;6.47;;;;;;;;;;10332735;28;20065;-52
2022/11/15 21:22:36;;;;;;;7.95;5.05;;;;;;;;;;10332969;28;20034;-53
2022/11/15 21:27:37;;;;;;;14.88;5.95;;;;;;;;;;10331586;28;20113;-52
2022/11/15 21:32:38;;;;;;;9.57;5.68;;;;;;;;;;10332198;28;20058;-52
2022/11/15 21:37:38;;;;;;;14.85;6.20;;;;;;;;;;10332624;28;20027;-53
2022/11/15 21:42:39;;;;;;;12.18;5.78;;;;;;;;;;10331438;28;20026;-53
2022/11/15 21:47:39;;;;;;;16.98;5.20;;;;;;;;;;10331440;28;20113;-52
2022/11/15 21:52:40;;;;;;;8.85;5.35;;;;;;;;;;10332407;28;20023;-52
2022/11/15 21:57:41;;;;;;;10.07;5.72;;;;;;;;;;10331860;28;20102;-52
2022/11/15 22:02:41;;;;;;;10.15;5.30;;;;;;;;;;10330203;28;20042;-52
2022/11/15 22:07:42;;;;;;;10.40;5.47;;;;;;;;;;10330736;28;20466;-51
2022/11/15 22:12:42;;;;;;;11.85;5.45;;;;;;;;;;10330413;28;20085;-53
2022/11/15 22:17:58;;;;;;;12.93;5.47;;;;;;;;;;10329830;28;20069;-55
2022/11/15 22:22:59;;;;;;;12.88;5.78;;;;;;;;;;10329776;28;20497;-53
2022/11/15 22:28:00;;;;;;;9.57;5.45;;;;;;;;;;10329072;28;20062;-54
2022/11/15 22:33:00;;;;;;;9.20;5.80;;;;;;;;;;10328710;28;20042;-54
2022/11/15 22:38:01;;;;;;;10.02;5.70;;;;;;;;;;10330283;28;20037;-54
2022/11/15 22:43:02;;;;;;;10.95;5.50;;;;;;;;;;10328724;28;20046;-53
2022/11/15 22:48:03;;;;;;;10.55;5.43;;;;;;;;;;10327167;28;20153;-52
2022/11/15 22:53:04;;;;;;;14.18;6.40;;;;;;;;;;10325509;28;20179;-58
2022/11/15 22:58:04;;;;;;;18.23;5.78;;;;;;;;;;10326931;28;20029;-58
2022/11/15 23:03:05;;;;;;;12.77;5.30;;;;;;;;;;10328559;28;20034;-58
2022/11/15 23:08:05;;;;;;;12.98;5.30;;;;;;;;;;10328948;28;20026;-59
2022/11/15 23:13:15;;;;;;;9.43;5.60;;;;;;;;;;10328239;28;20025;-58
2022/11/15 23:18:16;;;;;;;9.73;5.22;;;;;;;;;;10328720;28;20126;-58
2022/11/15 23:23:17;;;;;;;6.55;5.00;;;;;;;;;;10327318;28;20030;-58
2022/11/15 23:28:18;;;;;;;9.57;5.20;;;;;;;;;;10327087;28;20030;-58
2022/11/15 23:38:38;;;;;;;10.30;4.45;;;;;;;;;;10327806;28;20030;-59
2022/11/15 23:43:38;;;;;;;9.10;5.13;;;;;;;;;;10327806;28;20478;-59
2022/11/15 23:48:39;;;;;;;7.60;4.53;;;;;;;;;;10326336;28;20406;-59
2022/11/15 23:53:40;;;;;;;13.20;4.45;;;;;;;;;;10327546;28;20057;-59
2022/11/15 23:58:42;;;;;;;10.30;4.65;;;;;;;;;;10327809;28;20382;-59
